Time;durP1;ratioP1;P1;durP2;ratioP2;P2;SDS_P1;SDS_P2;PMS_P1;PMS_P2;Temp;Humidity;BMP_temperature;BMP_pressure;BME280_temperature;BME280_humidity;BME280_pressure;Samples;Min_cycle;Max_cycle;Signal;HPM_P1;HPM_P2
2023/05/15 00:01:47;;;;;;;29.60;18.35;;;;;;;;;;4995377;28;99910;-80
2023/05/15 00:04:13;;;;;;;21.45;17.77;;;;;;;;;;4999123;28;98676;-81
2023/05/15 00:06:40;;;;;;;26.85;20.10;;;;;;;;;;4994915;28;99621;-82
2023/05/15 00:09:07;;;;;;;30.90;19.75;;;;;;;;;;4988998;28;99341;-81
2023/05/15 00:11:33;;;;;;;31.38;21.13;;;;;;;;;;4996316;28;100299;-81
2023/05/15 00:14:00;;;;;;;31.13;20.95;;;;;;;;;;5012301;28;100733;-80
2023/05/15 00:16:27;;;;;;;38.95;21.25;;;;;;;;;;4997997;28;98614;-82
2023/05/15 00:18:53;;;;;;;28.35;21.33;;;;;;;;;;4991894;28;100201;-82
2023/05/15 00:21:20;;;;;;;30.77;21.67;;;;;;;;;;4998922;28;100027;-81
2023/05/15 00:23:46;;;;;;;25.02;21.52;;;;;;;;;;5000997;28;100066;-80
2023/05/15 00:26:14;;;;;;;27.02;20.83;;;;;;;;;;5004496;28;99407;-83
2023/05/15 00:28:41;;;;;;;26.65;18.30;;;;;;;;;;4994189;28;99881;-81
2023/05/15 00:31:07;;;;;;;28.73;21.05;;;;;;;;;;4975331;28;100071;-80
2023/05/15 00:33:34;;;;;;;34.38;21.23;;;;;;;;;;4969440;28;99422;-82
2023/05/15 00:36:03;;;;;;;28.38;21.98;;;;;;;;;;4990155;28;99484;-81
2023/05/15 00:38:29;;;;;;;35.53;23.85;;;;;;;;;;4995984;28;99381;-79
2023/05/15 00:40:56;;;;;;;28.67;23.45;;;;;;;;;;4993461;28;99005;-82
2023/05/15 00:43:24;;;;;;;36.78;22.48;;;;;;;;;;4991620;28;99158;-80
2023/05/15 00:45:51;;;;;;;31.42;21.42;;;;;;;;;;5000786;28;99348;-80
2023/05/15 00:48:18;;;;;;;33.53;22.70;;;;;;;;;;4998787;28;99957;-80
2023/05/15 00:50:45;;;;;;;35.75;23.83;;;;;;;;;;5004226;28;99884;-81
2023/05/15 00:53:11;;;;;;;31.48;24.63;;;;;;;;;;4981464;28;102052;-81
2023/05/15 00:55:39;;;;;;;38.47;25.33;;;;;;;;;;4971499;28;101314;-80
2023/05/15 00:58:06;;;;;;;32.60;22.95;;;;;;;;;;4989078;28;100287;-81
2023/05/15 01:00:33;;;;;;;34.35;24.77;;;;;;;;;;4989360;28;99429;-81
2023/05/15 01:03:00;;;;;;;38.42;25.70;;;;;;;;;;4985096;28;101197;-81
2023/05/15 01:05:27;;;;;;;35.30;24.20;;;;;;;;;;5004137;28;100727;-81
2023/05/15 01:08:05;;;;;;;34.30;26.40;;;;;;;;;;4976888;28;98898;-81
2023/05/15 01:10:33;;;;;;;36.90;26.02;;;;;;;;;;4996334;28;98742;-81
2023/05/15 01:13:01;;;;;;;40.70;26.73;;;;;;;;;;4985647;28;100234;-81
2023/05/15 01:15:27;;;;;;;44.50;26.58;;;;;;;;;;5006731;28;98696;-81
2023/05/15 01:17:53;;;;;;;48.17;28.17;;;;;;;;;;4978388;28;101837;-81
2023/05/15 01:20:21;;;;;;;47.78;28.50;;;;;;;;;;5004106;28;99894;-80
2023/05/15 01:23:02;;;;;;;45.75;27.20;;;;;;;;;;4984419;28;101945;-81
2023/05/15 01:25:42;;;;;;;46.95;27.90;;;;;;;;;;4991287;28;99527;-80
2023/05/15 01:28:11;;;;;;;49.92;28.17;;;;;;;;;;4991535;28;99145;-81
2023/05/15 01:30:39;;;;;;;45.90;27.80;;;;;;;;;;4981136;28;101085;-80
2023/05/15 01:33:23;;;;;;;49.92;29.88;;;;;;;;;;4981297;28;100126;-81
2023/05/15 01:36:01;;;;;;;54.60;30.40;;;;;;;;;;4995851;28;100002;-81
2023/05/15 01:38:38;;;;;;;42.53;28.80;;;;;;;;;;4985390;28;101850;-80
2023/05/15 01:41:09;;;;;;;46.22;30.15;;;;;;;;;;4978090;28;99213;-80
2023/05/15 01:43:38;;;;;;;66.80;32.43;;;;;;;;;;4972023;28;98910;-81
2023/05/15 01:46:06;;;;;;;58.03;32.13;;;;;;;;;;4992543;28;100908;-81
2023/05/15 01:48:35;;;;;;;53.80;30.17;;;;;;;;;;4992532;28;99248;-81
2023/05/15 01:51:03;;;;;;;51.88;29.70;;;;;;;;;;4992300;28;99883;-80
2023/05/15 01:53:30;;;;;;;55.40;29.30;;;;;;;;;;4997233;28;100370;-80
2023/05/15 01:55:57;;;;;;;53.15;31.30;;;;;;;;;;4993493;28;98813;-81
2023/05/15 01:58:25;;;;;;;50.35;28.95;;;;;;;;;;4976302;28;99932;-81
2023/05/15 02:00:52;;;;;;;56.90;29.83;;;;;;;;;;4991988;28;99102;-82
2023/05/15 02:03:19;;;;;;;58.03;29.77;;;;;;;;;;5002131;28;99173;-81
2023/05/15 02:05:47;;;;;;;51.03;29.65;;;;;;;;;;4985942;28;99612;-80
2023/05/15 02:08:14;;;;;;;52.53;30.08;;;;;;;;;;4993381;28;100638;-81
2023/05/15 02:10:42;;;;;;;45.70;29.65;;;;;;;;;;4973635;28;99020;-80
2023/05/15 02:13:10;;;;;;;61.13;32.35;;;;;;;;;;5000391;28;101319;-79
2023/05/15 02:15:37;;;;;;;61.45;31.88;;;;;;;;;;4999962;28;100359;-80
2023/05/15 02:18:04;;;;;;;62.40;33.75;;;;;;;;;;4977240;28;101782;-80
2023/05/15 02:20:30;;;;;;;67.25;32.53;;;;;;;;;;4991932;28;101815;-80
2023/05/15 02:22:56;;;;;;;65.93;33.75;;;;;;;;;;4992938;28;101613;-81
2023/05/15 02:25:29;;;;;;;53.25;31.13;;;;;;;;;;4994504;28;99283;-80
2023/05/15 02:27:56;;;;;;;;;;;;;;;;;;5003385;28;99057;-80
2023/05/15 02:30:33;;;;;;;56.92;29.65;;;;;;;;;;4996802;28;128013;-79
2023/05/15 02:33:15;;;;;;;51.55;29.05;;;;;;;;;;4980943;28;100376;-81
2023/05/15 02:35:42;;;;;;;;;;;;;;;;;;4993264;28;101720;-80
2023/05/15 02:38:12;;;;;;;39.88;27.15;;;;;;;;;;4970444;28;128161;-79
2023/05/15 02:40:39;;;;;;;49.00;30.50;;;;;;;;;;4993620;28;99254;-80
2023/05/15 02:43:06;;;;;;;51.97;29.83;;;;;;;;;;4999250;28;99141;-80
2023/05/15 02:45:33;;;;;;;52.45;32.00;;;;;;;;;;4977314;28;100405;-79
2023/05/15 02:48:00;;;;;;;53.92;32.78;;;;;;;;;;4993305;28;98896;-79
2023/05/15 02:50:26;;;;;;;48.60;30.63;;;;;;;;;;4991248;28;99875;-80
2023/05/15 02:53:03;;;;;;;45.78;29.58;;;;;;;;;;4991238;28;99550;-80
2023/05/15 02:55:30;;;;;;;53.90;33.10;;;;;;;;;;4977311;28;100824;-81
2023/05/15 02:57:56;;;;;;;54.55;33.03;;;;;;;;;;4995384;28;100287;-80
2023/05/15 03:00:23;;;;;;;56.70;33.25;;;;;;;;;;4993439;28;99048;-80
2023/05/15 03:02:49;;;;;;;56.28;33.42;;;;;;;;;;4976655;28;100634;-80
2023/05/15 03:05:16;;;;;;;56.08;34.22;;;;;;;;;;4987740;28;102941;-80
2023/05/15 03:07:42;;;;;;;60.88;34.75;;;;;;;;;;4978638;28;101078;-81
2023/05/15 03:10:09;;;;;;;63.13;34.53;;;;;;;;;;4979439;28;99677;-81
2023/05/15 03:12:35;;;;;;;50.90;32.08;;;;;;;;;;4995622;28;100272;-79
2023/05/15 03:15:02;;;;;;;53.67;32.85;;;;;;;;;;4997524;28;99886;-79
2023/05/15 03:17:28;;;;;;;57.67;33.50;;;;;;;;;;4997513;28;99213;-80
2023/05/15 03:19:55;;;;;;;52.50;32.40;;;;;;;;;;5006831;28;98683;-80
2023/05/15 03:22:21;;;;;;;47.60;30.92;;;;;;;;;;4978296;28;101711;-80
2023/05/15 03:24:48;;;;;;;51.53;29.95;;;;;;;;;;4986792;28;101522;-80
2023/05/15 03:27:15;;;;;;;52.08;31.52;;;;;;;;;;4985525;28;100135;-81
2023/05/15 03:29:41;;;;;;;43.25;30.20;;;;;;;;;;4973842;28;100167;-81
2023/05/15 03:32:08;;;;;;;43.78;27.20;;;;;;;;;;4973374;28;103363;-80
2023/05/15 03:34:34;;;;;;;39.53;29.85;;;;;;;;;;4995337;28;98992;-79
2023/05/15 03:37:01;;;;;;;45.45;30.65;;;;;;;;;;5006324;28;98933;-80
2023/05/15 03:39:27;;;;;;;40.42;28.35;;;;;;;;;;5004675;28;99368;-79
2023/05/15 03:41:54;;;;;;;41.30;28.10;;;;;;;;;;4994251;28;99747;-80
2023/05/15 03:44:21;;;;;;;41.97;28.13;;;;;;;;;;4994581;28;98978;-80
2023/05/15 03:46:47;;;;;;;38.67;27.60;;;;;;;;;;5005524;28;99324;-81
2023/05/15 03:49:16;;;;;;;36.33;26.35;;;;;;;;;;5000228;28;99801;-80
2023/05/15 03:51:42;;;;;;;35.85;25.85;;;;;;;;;;4988289;28;101004;-81
2023/05/15 03:54:09;;;;;;;38.65;26.25;;;;;;;;;;4982674;28;100092;-81
2023/05/15 03:56:35;;;;;;;39.53;26.27;;;;;;;;;;5002672;28;99245;-80
2023/05/15 03:59:01;;;;;;;41.63;25.60;;;;;;;;;;5006053;28;99187;-79
2023/05/15 04:01:28;;;;;;;45.58;26.27;;;;;;;;;;5005383;28;100074;-80
2023/05/15 04:03:54;;;;;;;32.58;22.58;;;;;;;;;;5015912;28;100761;-80
2023/05/15 04:06:21;;;;;;;31.63;25.55;;;;;;;;;;5016508;28;100605;-81
2023/05/15 04:08:48;;;;;;;28.80;23.05;;;;;;;;;;5019521;28;99038;-80
2023/05/15 04:11:15;;;;;;;31.40;24.63;;;;;;;;;;5018908;28;100197;-81
2023/05/15 04:13:41;;;;;;;27.52;23.95;;;;;;;;;;5006072;28;99100;-80
2023/05/15 04:16:08;;;;;;;34.90;24.48;;;;;;;;;;5018358;28;99987;-81
2023/05/15 04:18:35;;;;;;;28.95;24.27;;;;;;;;;;5015621;28;100314;-80
2023/05/15 04:21:02;;;;;;;31.60;25.50;;;;;;;;;;5013320;28;99951;-79
2023/05/15 04:23:28;;;;;;;29.63;23.40;;;;;;;;;;5004495;28;100187;-80
2023/05/15 04:25:55;;;;;;;30.40;23.88;;;;;;;;;;5007083;28;99339;-81
2023/05/15 04:28:22;;;;;;;33.05;25.55;;;;;;;;;;5010183;28;100247;-80
2023/05/15 04:30:48;;;;;;;33.13;22.73;;;;;;;;;;4991173;28;100336;-80
2023/05/15 04:33:14;;;;;;;23.30;20.23;;;;;;;;;;5012070;28;99928;-81
2023/05/15 04:35:41;;;;;;;26.60;21.55;;;;;;;;;;5006078;28;98916;-79
2023/05/15 04:38:07;;;;;;;31.35;22.42;;;;;;;;;;5004877;28;100359;-79
2023/05/15 04:40:34;;;;;;;29.48;22.55;;;;;;;;;;5004110;28;99457;-79
2023/05/15 04:43:02;;;;;;;28.30;22.42;;;;;;;;;;5013938;28;99763;-81
2023/05/15 04:45:29;;;;;;;27.67;24.02;;;;;;;;;;5010435;28;100034;-80
2023/05/15 04:47:55;;;;;;;32.53;23.35;;;;;;;;;;5005672;28;98999;-81
2023/05/15 04:50:22;;;;;;;39.50;23.50;;;;;;;;;;5004655;28;100305;-79
2023/05/15 04:52:48;;;;;;;30.95;24.20;;;;;;;;;;5023788;28;100736;-81
2023/05/15 04:55:15;;;;;;;26.75;23.83;;;;;;;;;;5011601;28;99523;-80
2023/05/15 04:57:42;;;;;;;27.35;23.98;;;;;;;;;;4996265;28;99087;-81
2023/05/15 05:00:10;;;;;;;29.58;24.77;;;;;;;;;;4999940;28;100161;-79
2023/05/15 05:02:37;;;;;;;32.65;24.35;;;;;;;;;;4999676;28;100099;-79
2023/05/15 05:05:05;;;;;;;28.45;23.00;;;;;;;;;;4992637;28;100521;-80
2023/05/15 05:07:31;;;;;;;25.38;21.63;;;;;;;;;;4997637;28;99955;-79
2023/05/15 05:09:58;;;;;;;30.60;22.48;;;;;;;;;;4988374;28;100136;-79
2023/05/15 05:12:24;;;;;;;25.27;21.63;;;;;;;;;;4996092;28;100659;-81
2023/05/15 05:14:54;;;;;;;27.77;22.48;;;;;;;;;;4997879;28;100088;-79
2023/05/15 05:17:20;;;;;;;25.20;20.98;;;;;;;;;;4996802;28;100265;-79
2023/05/15 05:19:46;;;;;;;25.65;19.88;;;;;;;;;;4988007;28;99949;-80
2023/05/15 05:22:13;;;;;;;23.98;20.13;;;;;;;;;;4989271;28;100059;-80
2023/05/15 05:24:39;;;;;;;27.67;20.52;;;;;;;;;;4996004;28;100233;-80
2023/05/15 05:27:06;;;;;;;24.60;20.23;;;;;;;;;;4995222;28;100023;-79
2023/05/15 05:29:32;;;;;;;24.42;20.77;;;;;;;;;;4996235;28;100126;-79
2023/05/15 05:31:58;;;;;;;26.48;19.98;;;;;;;;;;4996372;28;100785;-80
2023/05/15 05:34:25;;;;;;;24.10;19.60;;;;;;;;;;4997970;28;98830;-79
2023/05/15 05:36:51;;;;;;;23.50;18.48;;;;;;;;;;4995997;28;100733;-79
2023/05/15 05:39:18;;;;;;;25.80;19.55;;;;;;;;;;4994646;28;99148;-80
2023/05/15 05:41:44;;;;;;;21.67;18.23;;;;;;;;;;5003582;28;100074;-80
2023/05/15 05:44:11;;;;;;;20.83;17.02;;;;;;;;;;4994905;28;99244;-80
2023/05/15 05:46:37;;;;;;;21.15;17.00;;;;;;;;;;4979479;28;99253;-80
2023/05/15 05:49:03;;;;;;;18.52;16.70;;;;;;;;;;5002379;28;99128;-79
2023/05/15 05:51:30;;;;;;;20.15;16.83;;;;;;;;;;4994399;28;100554;-80
2023/05/15 05:53:57;;;;;;;18.25;16.40;;;;;;;;;;5003024;28;100030;-80
2023/05/15 05:56:23;;;;;;;17.67;15.55;;;;;;;;;;4998810;28;100847;-80
2023/05/15 05:58:49;;;;;;;17.63;15.80;;;;;;;;;;4997844;28;100391;-80
2023/05/15 06:01:16;;;;;;;17.95;16.15;;;;;;;;;;5004218;28;100272;-80
2023/05/15 06:03:43;;;;;;;18.85;16.55;;;;;;;;;;4993320;28;100382;-80
2023/05/15 06:06:10;;;;;;;19.40;17.60;;;;;;;;;;4998509;28;99010;-79
2023/05/15 06:08:36;;;;;;;20.33;18.42;;;;;;;;;;5006147;28;99580;-80
2023/05/15 06:11:04;;;;;;;21.80;19.65;;;;;;;;;;5005307;28;99310;-79
2023/05/15 06:13:30;;;;;;;23.08;20.58;;;;;;;;;;4998956;28;100487;-80
2023/05/15 06:15:57;;;;;;;21.92;19.73;;;;;;;;;;4998818;28;100009;-80
2023/05/15 06:18:23;;;;;;;21.63;19.60;;;;;;;;;;4998545;28;100917;-80
2023/05/15 06:20:49;;;;;;;24.45;21.85;;;;;;;;;;5001877;28;100666;-80
2023/05/15 06:23:16;;;;;;;24.27;21.63;;;;;;;;;;4988771;28;100228;-80
2023/05/15 06:25:42;;;;;;;23.90;21.63;;;;;;;;;;4994779;28;100177;-80
2023/05/15 06:28:09;;;;;;;24.00;21.48;;;;;;;;;;5002507;28;99050;-81
2023/05/15 06:30:35;;;;;;;22.80;20.35;;;;;;;;;;4998119;28;99417;-80
2023/05/15 06:33:01;;;;;;;26.52;19.17;;;;;;;;;;5006271;28;99350;-81
2023/05/15 06:35:28;;;;;;;22.25;19.85;;;;;;;;;;5006144;28;99164;-81
2023/05/15 06:37:54;;;;;;;20.02;17.70;;;;;;;;;;4991545;28;99895;-80
2023/05/15 06:40:23;;;;;;;19.80;16.95;;;;;;;;;;4991334;28;99839;-81
2023/05/15 06:42:50;;;;;;;18.83;17.02;;;;;;;;;;4971433;28;101386;-79
2023/05/15 06:45:16;;;;;;;19.45;17.65;;;;;;;;;;4969499;28;101333;-81
2023/05/15 06:47:43;;;;;;;19.92;18.02;;;;;;;;;;4998061;28;99304;-80
2023/05/15 06:50:09;;;;;;;19.75;17.90;;;;;;;;;;5006628;28;101328;-80
2023/05/15 06:52:36;;;;;;;19.02;17.00;;;;;;;;;;5002615;28;99934;-80
2023/05/15 06:55:02;;;;;;;19.27;16.40;;;;;;;;;;4995006;28;100125;-80
2023/05/15 06:57:32;;;;;;;19.98;17.27;;;;;;;;;;5011937;28;100667;-81
2023/05/15 06:59:58;;;;;;;17.90;16.27;;;;;;;;;;5014502;28;98964;-79
2023/05/15 07:02:25;;;;;;;20.45;16.92;;;;;;;;;;5009908;28;99634;-80
2023/05/15 07:04:51;;;;;;;18.60;16.45;;;;;;;;;;5020258;28;99685;-80
2023/05/15 07:07:18;;;;;;;17.35;15.82;;;;;;;;;;5008212;28;99403;-80
2023/05/15 07:09:47;;;;;;;18.08;16.40;;;;;;;;;;5015931;28;102019;-79
2023/05/15 07:12:14;;;;;;;18.58;16.63;;;;;;;;;;5017025;28;98894;-80
2023/05/15 07:14:40;;;;;;;19.85;17.80;;;;;;;;;;5020068;28;100378;-79
2023/05/15 07:17:07;;;;;;;19.88;18.00;;;;;;;;;;5026549;28;100225;-79
2023/05/15 07:19:33;;;;;;;20.75;18.38;;;;;;;;;;5007725;28;99485;-79
2023/05/15 07:21:59;;;;;;;18.63;16.67;;;;;;;;;;5020075;28;99905;-79
2023/05/15 07:24:28;;;;;;;20.23;18.02;;;;;;;;;;5020796;28;99530;-79
2023/05/15 07:26:55;;;;;;;21.25;17.50;;;;;;;;;;5007392;28;99332;-79
2023/05/15 07:29:24;;;;;;;17.48;15.85;;;;;;;;;;5006192;28;100552;-77
2023/05/15 07:31:50;;;;;;;21.27;14.57;;;;;;;;;;5020308;28;99932;-80
2023/05/15 07:34:17;;;;;;;20.85;15.13;;;;;;;;;;5009564;28;99863;-80
2023/05/15 07:36:43;;;;;;;14.77;12.93;;;;;;;;;;5014414;28;100379;-81
2023/05/15 07:39:10;;;;;;;21.77;13.23;;;;;;;;;;5011177;28;99743;-79
2023/05/15 07:41:36;;;;;;;17.38;15.23;;;;;;;;;;5007622;28;99930;-80
2023/05/15 07:44:03;;;;;;;19.30;16.98;;;;;;;;;;5009269;28;100732;-81
2023/05/15 07:46:29;;;;;;;16.63;14.73;;;;;;;;;;5005989;28;99915;-80
2023/05/15 07:48:56;;;;;;;13.93;12.70;;;;;;;;;;5009108;28;99711;-80
2023/05/15 07:51:22;;;;;;;17.70;15.93;;;;;;;;;;5018304;28;100042;-80
2023/05/15 07:53:49;;;;;;;19.75;17.58;;;;;;;;;;5005870;28;99880;-82
2023/05/15 07:56:15;;;;;;;19.75;17.77;;;;;;;;;;5007317;28;100838;-81
2023/05/15 07:58:42;;;;;;;17.80;15.65;;;;;;;;;;4989877;28;99028;-79
2023/05/15 08:01:08;;;;;;;17.90;14.57;;;;;;;;;;5005714;28;100287;-79
2023/05/15 08:03:35;;;;;;;14.27;12.85;;;;;;;;;;4989922;28;100366;-79
2023/05/15 08:06:01;;;;;;;14.35;12.88;;;;;;;;;;5000629;28;102331;-80
2023/05/15 08:08:28;;;;;;;14.80;13.05;;;;;;;;;;5004898;28;100757;-80
2023/05/15 08:10:54;;;;;;;13.85;12.07;;;;;;;;;;4995707;28;100186;-80
2023/05/15 08:13:20;;;;;;;14.30;12.88;;;;;;;;;;5003971;28;99084;-80
2023/05/15 08:15:47;;;;;;;15.07;13.20;;;;;;;;;;4996559;28;99181;-80
2023/05/15 08:18:13;;;;;;;15.13;13.02;;;;;;;;;;4993122;28;99806;-79
2023/05/15 08:20:40;;;;;;;17.73;12.73;;;;;;;;;;5000241;28;99700;-80
2023/05/15 08:23:06;;;;;;;14.15;12.52;;;;;;;;;;5000798;28;100583;-80
2023/05/15 08:25:33;;;;;;;16.27;13.23;;;;;;;;;;4984860;28;99655;-79
2023/05/15 08:28:00;;;;;;;14.73;13.05;;;;;;;;;;5006163;28;99406;-79
2023/05/15 08:30:26;;;;;;;14.13;12.73;;;;;;;;;;4997617;28;99017;-81
2023/05/15 08:32:53;;;;;;;13.45;12.27;;;;;;;;;;4993366;28;99104;-80
2023/05/15 08:35:19;;;;;;;13.45;12.07;;;;;;;;;;4986108;28;99605;-81
2023/05/15 08:37:46;;;;;;;16.60;12.57;;;;;;;;;;4992953;28;99977;-80
2023/05/15 08:40:12;;;;;;;13.57;12.23;;;;;;;;;;5004619;28;99388;-80
2023/05/15 08:42:43;;;;;;;14.13;12.55;;;;;;;;;;4996740;28;100264;-80
2023/05/15 08:45:12;;;;;;;22.08;12.75;;;;;;;;;;4994277;28;100321;-79
2023/05/15 08:47:40;;;;;;;14.38;12.98;;;;;;;;;;4990274;28;99827;-79
2023/05/15 08:50:09;;;;;;;14.55;13.05;;;;;;;;;;4997568;28;99392;-80
2023/05/15 08:52:35;;;;;;;13.45;11.90;;;;;;;;;;4995739;28;99898;-80
2023/05/15 08:55:02;;;;;;;13.68;12.45;;;;;;;;;;4987356;28;100659;-79
2023/05/15 08:57:30;;;;;;;15.27;13.32;;;;;;;;;;4994156;28;98789;-79
2023/05/15 08:59:57;;;;;;;13.80;12.40;;;;;;;;;;4995693;28;99938;-80
2023/05/15 09:02:25;;;;;;;13.77;11.43;;;;;;;;;;4993677;28;99823;-80
2023/05/15 09:04:51;;;;;;;13.65;12.32;;;;;;;;;;4991793;28;99944;-79
2023/05/15 09:07:18;;;;;;;15.20;11.65;;;;;;;;;;4993920;28;99910;-78
2023/05/15 09:09:45;;;;;;;18.67;11.98;;;;;;;;;;4991804;28;100557;-80
2023/05/15 09:12:15;;;;;;;14.05;12.70;;;;;;;;;;5003459;28;100215;-79
2023/05/15 09:14:42;;;;;;;13.80;12.30;;;;;;;;;;4997711;28;100574;-79
2023/05/15 09:17:09;;;;;;;13.27;11.95;;;;;;;;;;4988444;28;100199;-80
2023/05/15 09:19:37;;;;;;;14.18;12.77;;;;;;;;;;4991071;28;99416;-80
2023/05/15 09:22:15;;;;;;;14.93;13.02;;;;;;;;;;4992463;28;100511;-79
2023/05/15 09:24:42;;;;;;;14.60;13.18;;;;;;;;;;4991658;28;99949;-80
2023/05/15 09:27:10;;;;;;;13.95;12.70;;;;;;;;;;4992840;28;100182;-79
2023/05/15 09:29:37;;;;;;;14.02;12.73;;;;;;;;;;4995436;28;100112;-79
2023/05/15 09:32:05;;;;;;;13.05;12.00;;;;;;;;;;5003765;28;99604;-79
2023/05/15 09:34:33;;;;;;;14.60;13.20;;;;;;;;;;4997688;28;99899;-80
2023/05/15 09:36:59;;;;;;;14.88;13.30;;;;;;;;;;4996206;28;99983;-79
2023/05/15 09:39:26;;;;;;;15.15;13.82;;;;;;;;;;5002078;28;100481;-79
2023/05/15 09:41:53;;;;;;;15.25;13.65;;;;;;;;;;4995588;28;99278;-79
2023/05/15 09:44:23;;;;;;;15.07;13.75;;;;;;;;;;5002618;28;99840;-80
2023/05/15 09:46:50;;;;;;;16.30;14.13;;;;;;;;;;4996279;28;100378;-79
2023/05/15 09:49:17;;;;;;;14.75;13.35;;;;;;;;;;4995806;28;100341;-79
2023/05/15 09:51:43;;;;;;;17.33;15.60;;;;;;;;;;4996167;28;100425;-79
2023/05/15 09:54:13;;;;;;;20.40;16.25;;;;;;;;;;5000325;28;99357;-79
2023/05/15 09:56:42;;;;;;;18.60;16.75;;;;;;;;;;4987335;28;100715;-76
2023/05/15 09:59:11;;;;;;;20.42;15.32;;;;;;;;;;4994405;28;99230;-78
2023/05/15 10:01:37;;;;;;;16.40;14.80;;;;;;;;;;4988582;28;100454;-77
2023/05/15 10:04:05;;;;;;;19.95;18.05;;;;;;;;;;5000299;28;99979;-80
2023/05/15 10:06:35;;;;;;;17.70;15.65;;;;;;;;;;4995709;28;100485;-78
2023/05/15 10:09:02;;;;;;;18.85;16.85;;;;;;;;;;4998437;28;100256;-79
2023/05/15 10:11:29;;;;;;;20.45;18.45;;;;;;;;;;4994812;28;99138;-78
2023/05/15 10:13:56;;;;;;;17.98;16.35;;;;;;;;;;4999344;28;99145;-78
2023/05/15 10:16:24;;;;;;;22.25;20.05;;;;;;;;;;4997946;28;98582;-77
2023/05/15 10:18:51;;;;;;;23.52;21.05;;;;;;;;;;4992187;28;98607;-77
2023/05/15 10:21:18;;;;;;;26.85;22.15;;;;;;;;;;5000291;28;100594;-76
2023/05/15 10:23:46;;;;;;;20.88;18.80;;;;;;;;;;4991005;28;100234;-79
2023/05/15 10:26:22;;;;;;;25.90;22.23;;;;;;;;;;4998622;28;100637;-76
2023/05/15 10:28:49;;;;;;;27.67;22.55;;;;;;;;;;4994301;28;100771;-78
2023/05/15 10:31:16;;;;;;;24.95;22.45;;;;;;;;;;5001854;28;99919;-81
2023/05/15 10:33:43;;;;;;;27.45;24.55;;;;;;;;;;5002470;28;99784;-80
2023/05/15 10:36:10;;;;;;;35.88;28.50;;;;;;;;;;5000441;28;100975;-81
2023/05/15 10:38:38;;;;;;;41.35;30.77;;;;;;;;;;5007668;28;100169;-81
2023/05/15 10:41:04;;;;;;;34.45;30.75;;;;;;;;;;5003554;28;99192;-80
2023/05/15 10:43:43;;;;;;;29.92;26.83;;;;;;;;;;5000180;28;100451;-81
2023/05/15 10:46:09;;;;;;;39.90;31.15;;;;;;;;;;5005634;28;100146;-82
2023/05/15 10:48:36;;;;;;;38.03;30.63;;;;;;;;;;5004877;28;100199;-81
2023/05/15 10:51:02;;;;;;;39.65;32.45;;;;;;;;;;5003763;28;100026;-81
2023/05/15 10:53:30;;;;;;;37.28;30.08;;;;;;;;;;5003707;28;99052;-81
2023/05/15 10:55:56;;;;;;;40.15;33.58;;;;;;;;;;5006563;28;99721;-82
2023/05/15 10:58:23;;;;;;;42.75;32.63;;;;;;;;;;5004323;28;99870;-83
2023/05/15 11:00:50;;;;;;;38.25;32.65;;;;;;;;;;5014456;28;100140;-80
2023/05/15 11:03:34;;;;;;;37.80;31.77;;;;;;;;;;5009570;28;100120;-80
2023/05/15 11:06:14;;;;;;;43.15;32.33;;;;;;;;;;4999662;28;99811;-80
2023/05/15 11:08:41;;;;;;;43.38;34.78;;;;;;;;;;4999817;28;99416;-80
2023/05/15 11:11:08;;;;;;;38.20;31.90;;;;;;;;;;5004620;28;99136;-80
2023/05/15 11:14:06;;;;;;;35.13;30.90;;;;;;;;;;5002328;28;100687;-80
2023/05/15 11:16:51;;;;;;;38.80;29.35;;;;;;;;;;5005064;28;99514;-80
2023/05/15 11:19:27;;;;;;;38.47;30.13;;;;;;;;;;5010272;28;101164;-79
2023/05/15 11:21:56;;;;;;;34.88;26.88;;;;;;;;;;4998982;28;100592;-82
2023/05/15 11:24:30;;;;;;;36.28;25.92;;;;;;;;;;5005126;28;99660;-79
2023/05/15 11:26:59;;;;;;;30.55;27.00;;;;;;;;;;5003830;28;100751;-79
2023/05/15 11:29:26;;;;;;;32.97;25.27;;;;;;;;;;5004262;28;101098;-78
2023/05/15 11:31:52;;;;;;;30.33;24.98;;;;;;;;;;5001739;28;99118;-79
2023/05/15 11:34:34;;;;;;;28.10;23.83;;;;;;;;;;5004298;28;98817;-80
2023/05/15 11:37:00;;;;;;;27.15;24.33;;;;;;;;;;5001835;28;99726;-80
2023/05/15 11:39:29;;;;;;;27.38;23.35;;;;;;;;;;5003986;28;101068;-77
2023/05/15 11:41:56;;;;;;;32.45;22.40;;;;;;;;;;5013536;28;101007;-78
2023/05/15 11:44:25;;;;;;;26.85;22.30;;;;;;;;;;5008292;28;100383;-78
2023/05/15 11:46:51;;;;;;;26.52;22.45;;;;;;;;;;5014014;27;99290;-81
2023/05/15 11:49:18;;;;;;;30.35;21.48;;;;;;;;;;5013056;28;100989;-79
2023/05/15 11:51:46;;;;;;;26.55;21.35;;;;;;;;;;5006141;28;100045;-77
2023/05/15 11:54:13;;;;;;;27.90;23.40;;;;;;;;;;5006130;28;100065;-78
2023/05/15 11:56:43;;;;;;;26.73;22.17;;;;;;;;;;5010215;28;98657;-77
2023/05/15 11:59:15;;;;;;;26.65;21.27;;;;;;;;;;5003919;28;99099;-79
2023/05/15 12:01:46;;;;;;;23.15;19.25;;;;;;;;;;4994701;28;99494;-80
2023/05/15 12:04:13;;;;;;;22.73;19.10;;;;;;;;;;5000981;28;101611;-79
2023/05/15 12:06:40;;;;;;;25.48;17.15;;;;;;;;;;5003473;28;100772;-80
2023/05/15 12:09:11;;;;;;;25.75;18.38;;;;;;;;;;5004739;28;99561;-79
2023/05/15 12:11:38;;;;;;;17.70;15.90;;;;;;;;;;4999613;28;99247;-80
2023/05/15 12:14:04;;;;;;;18.75;15.95;;;;;;;;;;5002573;28;99566;-80
2023/05/15 12:16:31;;;;;;;19.85;15.93;;;;;;;;;;4996634;28;100774;-79
2023/05/15 12:18:58;;;;;;;20.60;15.80;;;;;;;;;;5005596;28;99039;-79
2023/05/15 12:21:25;;;;;;;20.00;15.95;;;;;;;;;;5001613;28;100028;-80
2023/05/15 12:23:52;;;;;;;16.92;15.13;;;;;;;;;;5000153;28;100529;-80
2023/05/15 12:26:33;;;;;;;18.08;14.90;;;;;;;;;;4997150;28;100304;-82
2023/05/15 12:29:00;;;;;;;16.95;15.20;;;;;;;;;;4998947;28;99300;-79
2023/05/15 12:31:26;;;;;;;18.45;14.75;;;;;;;;;;5001687;28;100062;-79
2023/05/15 12:33:53;;;;;;;18.75;14.95;;;;;;;;;;5004961;28;99246;-81
2023/05/15 12:36:20;;;;;;;16.00;14.38;;;;;;;;;;5004358;28;99964;-80
2023/05/15 12:38:47;;;;;;;15.40;13.80;;;;;;;;;;5004195;28;100084;-80
2023/05/15 12:41:13;;;;;;;16.30;14.13;;;;;;;;;;4997436;28;100056;-79
2023/05/15 12:43:40;;;;;;;26.55;16.90;;;;;;;;;;5002012;28;99298;-79
2023/05/15 12:46:06;;;;;;;17.65;14.98;;;;;;;;;;5005304;28;99834;-79
2023/05/15 12:48:34;;;;;;;15.45;13.85;;;;;;;;;;5001510;28;99725;-80
2023/05/15 12:51:05;;;;;;;14.45;12.77;;;;;;;;;;5008869;28;99419;-80
2023/05/15 12:53:35;;;;;;;13.38;11.88;;;;;;;;;;5002755;28;100376;-80
2023/05/15 12:56:01;;;;;;;12.57;11.40;;;;;;;;;;5004441;28;100614;-80
2023/05/15 12:58:28;;;;;;;12.25;11.25;;;;;;;;;;5003019;28;99438;-81
2023/05/15 13:00:55;;;;;;;14.70;12.43;;;;;;;;;;5000479;28;100096;-81
2023/05/15 13:03:23;;;;;;;13.55;12.15;;;;;;;;;;5003454;28;100503;-80
2023/05/15 13:05:51;;;;;;;15.20;13.63;;;;;;;;;;4997230;28;101214;-80
2023/05/15 13:08:17;;;;;;;15.80;14.13;;;;;;;;;;5003026;28;99254;-81
2023/05/15 13:10:44;;;;;;;16.77;14.95;;;;;;;;;;4986624;28;100252;-79
2023/05/15 13:13:12;;;;;;;17.38;15.43;;;;;;;;;;4997387;28;98899;-79
2023/05/15 13:15:39;;;;;;;14.95;13.32;;;;;;;;;;5003282;28;99787;-78
2023/05/15 13:18:07;;;;;;;16.00;13.35;;;;;;;;;;5002923;28;99258;-79
2023/05/15 13:20:35;;;;;;;15.32;13.60;;;;;;;;;;5001984;28;100307;-80
2023/05/15 13:23:02;;;;;;;19.58;13.95;;;;;;;;;;5002122;28;100881;-80
2023/05/15 13:25:29;;;;;;;18.02;14.77;;;;;;;;;;4996247;28;100244;-80
2023/05/15 13:27:58;;;;;;;17.08;15.10;;;;;;;;;;4999334;28;99225;-80
2023/05/15 13:30:25;;;;;;;15.80;14.23;;;;;;;;;;5001390;28;99492;-80
2023/05/15 13:32:51;;;;;;;14.05;12.75;;;;;;;;;;5002208;28;99078;-80
2023/05/15 13:35:21;;;;;;;16.55;13.75;;;;;;;;;;5007840;28;99897;-80
2023/05/15 13:37:48;;;;;;;12.43;10.50;;;;;;;;;;4997616;28;100167;-80
2023/05/15 13:40:14;;;;;;;8.00;7.22;;;;;;;;;;5003235;28;100147;-80
2023/05/15 13:42:41;;;;;;;11.25;7.00;;;;;;;;;;5000317;28;100157;-80
2023/05/15 13:45:08;;;;;;;8.85;7.35;;;;;;;;;;4994535;28;98992;-80
2023/05/15 13:47:35;;;;;;;7.20;6.57;;;;;;;;;;4998254;28;100247;-80
2023/05/15 13:50:02;;;;;;;9.82;7.82;;;;;;;;;;5002483;28;99437;-78
2023/05/15 13:52:30;;;;;;;8.15;7.38;;;;;;;;;;5001628;28;100030;-79
2023/05/15 13:54:56;;;;;;;11.25;8.98;;;;;;;;;;4999537;28;99939;-79
2023/05/15 13:57:22;;;;;;;12.15;9.18;;;;;;;;;;4998228;28;99101;-78
2023/05/15 13:59:49;;;;;;;11.60;8.98;;;;;;;;;;4999741;28;99006;-78
2023/05/15 14:02:15;;;;;;;10.75;8.95;;;;;;;;;;5003643;28;100396;-80
2023/05/15 14:04:42;;;;;;;13.60;10.05;;;;;;;;;;5011457;28;100297;-79
2023/05/15 14:07:08;;;;;;;13.40;9.10;;;;;;;;;;5009732;28;99266;-78
2023/05/15 14:09:35;;;;;;;7.88;6.88;;;;;;;;;;5003919;28;100467;-79
2023/05/15 14:12:01;;;;;;;11.93;8.05;;;;;;;;;;5012480;28;100652;-80
2023/05/15 14:14:27;;;;;;;12.20;9.50;;;;;;;;;;5011331;28;99993;-79